Burewala Weather



Burewala's Current Weather

Temprature 30.34o clear sky

clear sky

Rain: 0 %

Min Temprature30.34o
Max Temprature30.34o
Humidity41
Wind Speed4.98 m/h
Sun Rise05:11:20
Sun Set19:01:23
Current Time: 24-May-2022 08:39:08
Lat/Lon: 30.1667, 72.65




Burewala's Geo Location



Burewala's Weather Forecast

Time Overall Temp Min Temp Max Temp Humidity Wind Speed Rain
24-May-2022 (Tue)
11:00:00 clear sky 30.460 30.460 34.770 41 4.91 m/h 0 %
14:00:00 clear sky 35.060 35.060 38.440 27 4.86 m/h 0 %
17:00:00 clear sky 38.050 38.050 38.050 17 4.23 m/h 0 %
20:00:00 clear sky 33.130 33.130 33.130 24 4.47 m/h 0 %
23:00:00 clear sky 30.080 30.080 30.080 28 4.09 m/h 0 %
25-May-2022 (Wed)
02:00:00 clear sky 28.630 28.630 28.630 31 3.36 m/h 0 %
05:00:00 clear sky 27.540 27.540 27.540 34 3.16 m/h 0 %
08:00:00 clear sky 33.100 33.100 33.100 24 3.65 m/h 0 %
11:00:00 clear sky 38.340 38.340 38.340 15 1.72 m/h 0 %
14:00:00 clear sky 41.140 41.140 41.140 12 1.86 m/h 0 %
17:00:00 clear sky 41.140 41.140 41.140 11 1.66 m/h 0 %
20:00:00 clear sky 36.550 36.550 36.550 14 3.08 m/h 0 %
23:00:00 clear sky 33.140 33.140 33.140 20 3.84 m/h 0 %
26-May-2022 (Thu)
02:00:00 clear sky 31.570 31.570 31.570 23 3.48 m/h 0 %
05:00:00 clear sky 30.350 30.350 30.350 24 3.73 m/h 0 %
08:00:00 clear sky 37.700 37.700 37.700 15 5.17 m/h 0 %
11:00:00 clear sky 42.770 42.770 42.770 12 4.32 m/h 0 %
14:00:00 clear sky 45.450 45.450 45.450 10 2.94 m/h 0 %
17:00:00 clear sky 45.970 45.970 45.970 8 1.93 m/h 0 %
20:00:00 clear sky 39.470 39.470 39.470 11 0.53 m/h 0 %
23:00:00 clear sky 36.000 36.000 36.000 14 0.95 m/h 0 %
27-May-2022 (Fri)
02:00:00 clear sky 34.070 34.070 34.070 18 2.2 m/h 0 %
05:00:00 clear sky 32.160 32.160 32.160 36 3.61 m/h 0 %
08:00:00 clear sky 35.030 35.030 35.030 37 7.08 m/h 0 %
11:00:00 clear sky 42.040 42.040 42.040 21 5.44 m/h 0 %
14:00:00 clear sky 46.650 46.650 46.650 12 3.52 m/h 0 %
17:00:00 clear sky 47.780 47.780 47.780 5 3.46 m/h 0 %
20:00:00 clear sky 40.780 40.780 40.780 7 2.85 m/h 0 %
23:00:00 clear sky 39.560 39.560 39.560 17 7.95 m/h 0 %
28-May-2022 (Sat)
02:00:00 clear sky 34.230 34.230 34.230 17 5.55 m/h 0 %
05:00:00 clear sky 32.110 32.110 32.110 33 7.26 m/h 0 %
08:00:00 clear sky 37.560 37.560 37.560 18 8.89 m/h 0 %
11:00:00 clear sky 45.240 45.240 45.240 5 8.29 m/h 0 %
14:00:00 clear sky 47.970 47.970 47.970 2 5.88 m/h 0 %
17:00:00 clear sky 46.890 46.890 46.890 5 5.8 m/h 0 %
20:00:00 clear sky 40.440 40.440 40.440 5 4.63 m/h 0 %
23:00:00 clear sky 37.460 37.460 37.460 5 5.44 m/h 0 %
29-May-2022 (Sun)
02:00:00 clear sky 32.090 32.090 32.090 9 1.39 m/h 0 %
05:00:00 clear sky 29.470 29.470 29.470 16 2.92 m/h 0 %
08:00:00 clear sky 35.540 35.540 35.540 11 1.75 m/h 0 %


Burewala's Tourist Spots

Historical Places in Burewala

Famous Cities (61)